8VA0 weather

Mcv Heliport
Richmond, Virginia, United States

Public forecast

Using degrees Fahrenheit for public forecast. Weather courtesy of forecast.io.

Closest aviation weather report (METAR) to Mcv Heliport

Closest report is Richmond International Airport, 5.9 nm (11.0 km) ESE. Retrieved 2019/10/18 07:54 UTC (19 minutes ago):

KRIC 180754Z 00000KT 10SM CLR 06/03 A2990 RMK AO2 SLP130 T00610028

Closest aviation forecast (TAF) to Mcv Heliport

Closest forecast is Richmond International Airport, 5.9 nm (11.0 km) ESE. Retrieved 2019/10/18 06:27 UTC (2 hours ago):

TAF KRIC 180525Z 1806/1906 29008KT P6SM SKC FM181400 32006KT P6SM SKC FM182300 VRB03KT P6SM SKC